Terminal Aerodrome Forecast
Issued by NWS

Home | Current Version | Previous Version | Text Only | Print | Product List | Glossary Off
Versions: 1 2 3 4 5 6 7 8 9 10 11 12 13 14 15 16 17 18 19 20

000
FTUS43 KTOP 261400 AAA
TAFMHK
TAF AMD
KMHK 261454Z 2615/2712 23012KT P6SM SCT030
     FM261600 23012G22KT P6SM BKN015
     FM261900 24012G22KT P6SM SCT030
     FM270000 26004KT P6SM SCT200=

USA.gov is the U.S. government's official web portal to all federal, state and local government web resources and services.